Nome, AK (99762)

10:00 AM AKST on February 06, 2016 (GMT -0900)
Nome | | Change Station
CLOSE
Current Station
Airport
Location: Nome,
Elevation: 36 ft
Nearby Weather Stations

Elev 36 ft 64.51 °N, 165.45 °W | Updated 5 minutes ago

Light Freezing Drizzle
Light Freezing Drizzle Snow
26 °F
Feels Like 16 °F
N
12
Wind Variable Wind from East

Today
High -- | Low -- °F
--% Chance of Precip.
Yesterday
High -- | Low -- °F
Precip. -- in
Pressure 29.41 in
Visibility 1.8 miles
Clouds Overcast 1400 ft
Windchill 16 °F
Dew Point 26 °F
Humidity 100%
Rainfall 0.28 in
Snow Depth Not available.
10:29 AM 6:03 PM
Waning Crescent, 4% visible
SPECI PAOM 061855Z 10010KT 1 3/4SM -FZDZSN OVC014 M03/M03 A2941 RMK FZDZB55 P0000 I1000 T10331033 VIA AUTODIAL
Pressure 29.41 in
Visibility 1.8 miles
Clouds Overcast 1400 ft
Windchill 16 °F
Dew Point 26 °F
Humidity 100%
Rainfall 0.28 in
Snow Depth Not available.
10:29 AM 6:03 PM
Waning Crescent, 4% visible
SPECI PAOM 061855Z 10010KT 1 3/4SM -FZDZSN OVC014 M03/M03 A2941 RMK FZDZB55 P0000 I1000 T10331033 VIA AUTODIAL

10-Day Weather Forecast

Almanac

Astronomy

Feb. 06, 2016 Rise Set
Actual Time
Civil Twilight
Nautical Twilight
Astronomical Twilight
Moon
Length of Visible Light
Length of Day
Tomorrow will be .
, % of the Moon is Illuminated

Today's Extremes

State Highs State Lows

Community

WunderPhotos

Upload Photos

1,891,033 photos uploaded!

WunderBlog® & News

Nearby

Air Quality

  Air Quality AQ Index Pollutant
Not available.

Snow Depth

Station Depth Elevation

Earthquake Activity

City Distance Mag. Time & Date
Minimum magnitude displayed is 2.5.

Coastal Water Temperatures

Place Temperature

Stations

Nearby Weather Stations

Station Location Temp. Windchill Dew Point Humidity Wind Precip. Elev Updated Type
                   

Watches & Warnings

There are currently no watches in effect.